Tiempo atmosférico en la estación meteorológica de Valderredible, Polientes, Cantabria (720 m.)



Fecha
DESCASC
Temp. máxima en grados centígrados (hora)
DESCASC
Temp. mínima en grados centígrados (hora)
DESCASC
Temp. media en grados centígrados
DESCASC
Racha de viento máxima en m/sg (hora)
DESCASC
Velocidad máxima media en intervalos de 10 minutos(hora)
DESCASC
Precipitaciones diarias en mm
DESCASC
Precipitaciones de 00:00 a 06:00 en mm
DESCASC
Precipitaciones de 06:00 a 12:00 en mm
DESCASC
Precipitaciones de 12:00 a 18:00 en mm
DESCASC
Precipitaciones de 18:00 a 24:00 en mm
DESCASC
27-01-2020 10.5 (17:00) 5.8 (00:10) 8.2 13.61 (07:10) 7.22 (07:10) 1.6 0 0.2 1 0.4
26-01-2020 8.5 (15:10) -1.3 (09:10) 3.6 11.39 (18:50) 5.28 (20:40) 0 0 0 0 0
25-01-2020 8.9 (15:30) 2.2 (00:00) 5.5 3.33 (17:00) 1.67 (17:00) 0.4 0 0 0 0.4
24-01-2020 9.6 (15:20) 0 (00:00) 4.8 4.17 (14:20) 2.22 (14:50) 0.2 0 0 0 0.2
23-01-2020 9.5 (17:10) 1.1 (00:00) 5.3 3.89 (12:20) 2.22 (12:30) 0 0 0 0 0
22-01-2020 8.3 (14:30) 1.4 (00:00) 4.9 6.67 (02:30) 3.89 (02:30) 1 0.2 0.8 0 0
21-01-2020 3.9 (23:50) 0.1 (00:00) 2 9.17 (17:30) 4.72 (12:30) 1.3 0 0 1.3 0
20-01-2020 2.7 (14:40) 0.2 (00:00) 1.5 11.39 (13:10) 4.44 (10:00) 0.1 0.1 0 0 0
19-01-2020 5.7 (14:30) 1 (00:00) 3.3 13.89 (14:30) 5 (06:20) 1.4 0.8 0.6 0 0
18-01-2020 9.2 (15:30) 0.1 (00:00) 4.6 12.78 (13:50) 6.94 (14:00) 6.3 0 0 4.1 2.2
17-01-2020 10.6 (15:20) 0.7 (00:00) 5.7 11.94 (01:10) 6.11 (01:30) 0 0 0 0 0
16-01-2020 14.2 (16:00) 8 (00:00) 11.1 16.67 (13:40) 8.61 (16:20) 0 0 0 0 0
15-01-2020 11.3 (14:20) 7 (00:00) 9.2 16.11 (08:10) 7.78 (06:50) 0 0 0 0 0
14-01-2020 9.5 (14:50) 2.7 (00:00) 6.1 15.83 (19:30) 9.17 (15:10) 0 0 0 0 0
13-01-2020 7.3 (15:00) -5.3 (-00:0) 1 10 (19:50) 6.67 (19:50) 0 0 0 0 0
12-01-2020 8.9 (17:10) -3.9 (-00:0) 2.5 2.78 (10:40) 1.67 (18:00) 0 0 0 0 0
11-01-2020 11 (16:20) -2.7 (-00:0) 4.1 3.33 (09:10) 2.22 (09:20) 0 0 0 0 0
10-01-2020 8.9 (15:00) -0.8 (-00:0) 4 7.5 (15:40) 3.61 (15:40) 0.5 0 0.1 0.4 0
09-01-2020 10.9 (14:30) -2.1 (-00:0) 4.4 10.28 (15:20) 5.56 (16:20) 0.1 0 0 0.1 0
08-01-2020 -- (--) -- (--) -- -- (--) -- (--) -- -- -- 0 0
07-01-2020 -- (--) -- (--) -- -- (--) -- (--) -- -- -- -- --
06-01-2020 -- (--) -- (--) -- -- (--) -- (--) -- -- -- -- --
05-01-2020 -- (--) -- (--) -- -- (--) -- (--) -- -- -- -- --
04-01-2020 -- (--) -- (--) -- -- (--) -- (--) -- -- -- -- --
03-01-2020 -- (--) -- (--) -- -- (--) -- (--) -- -- -- -- --
02-01-2020 -- (--) -- (--) -- -- (--) -- (--) -- -- -- -- --
01-01-2020 -- (--) -- (--) -- -- (--) -- (--) -- -- -- -- --
31-12-2019 -- (--) -- (--) -- -- (--) -- (--) -- -- -- -- --
30-12-2019 -- (--) -- (--) -- -- (--) -- (--) -- -- -- -- --

Gráficas

Temp. máximas Temp. mínimas Temp. medias Precipitaciones Rachas de viento máximas Velocidades máximas media en intervalos de 10 minutos

Datos horarios

Fecha y hora oficial Temperatura (ºC) Velocidad del viento (km/h) Dirección del viento Racha (km/h) Dirección de racha Precipitación (mm) Presión (hPa) Tendencia (hPa) Humedad (%)
2020-01-28 23:00:00 6 0 Calma 3 Sudoeste 0 -- -- 87
2020-01-28 22:00:00 6.4 0 Calma 5 Sudoeste 0 -- -- 85
2020-01-28 21:00:00 5.8 3 Norte 17 Sudoeste 0 -- -- 79
2020-01-28 20:00:00 8.8 9 Sudoeste 18 Oeste 0 -- -- 67
2020-01-28 19:00:00 9 9 Sudoeste 20 Oeste 0 -- -- 65
2020-01-28 18:00:00 9.3 6 Sudoeste 19 Sudoeste 0 -- -- 60
2020-01-28 17:00:00 11.3 10 Sudoeste 23 Sudoeste 0 -- -- 49
2020-01-28 16:00:00 11.7 17 Sudoeste 40 Sudoeste 0 -- -- 44
2020-01-28 15:00:00 12.1 20 Sudoeste 35 Sudoeste 0 -- -- 43
2020-01-28 14:00:00 12.3 19 Sudoeste 34 Sudoeste 0 -- -- 45
2020-01-28 13:00:00 11.1 21 Sudoeste 41 Sudoeste 0 -- -- 46
2020-01-28 12:00:00 9.9 15 Sudoeste 27 Oeste 0 -- -- 55
2020-01-28 11:00:00 8.9 11 Sudoeste 22 Sudoeste 0 -- -- 61
2020-01-28 10:00:00 7.7 12 Sudoeste 24 Sudoeste 0 -- -- 69
2020-01-28 09:00:00 7.2 13 Sudoeste 24 Sudoeste 0 -- -- 75
2020-01-28 08:00:00 7.3 12 Sudoeste 23 Sudoeste 0 -- -- 78
2020-01-28 07:00:00 8.5 13 Sudoeste 35 Sudoeste 0 -- -- 73
2020-01-28 06:00:00 9 21 Sudoeste 38 Sudoeste 0 -- -- 70
2020-01-28 05:00:00 8.7 14 Sudoeste 27 Sudoeste 0 -- -- 75
2020-01-28 04:00:00 8.2 8 Sudoeste 24 Sudoeste 0 -- -- 78
2020-01-28 03:00:00 8.8 13 Sudoeste 26 Sudoeste 0 -- -- 82
2020-01-28 02:00:00 8.6 9 Sudoeste 22 Oeste 0.2 -- -- 90
2020-01-28 01:00:00 8.8 10 Sudoeste 29 Sudoeste 0 -- -- 84
2020-01-28 00:00:00 9 17 Sudoeste 35 Sudoeste 0 -- -- 77
2020-01-27 23:00:00 9 17 Sudoeste 40 Oeste 0 -- -- 75
2020-01-27 22:00:00 9.3 23 Sudoeste 45 Sudoeste 0.1 -- -- 73
2020-01-27 21:00:00 9.1 18 Sudoeste 37 Sudoeste 0.3 -- -- 84
2020-01-27 20:00:00 10.2 15 Sudoeste 32 Sudoeste 0 -- -- 70
2020-01-27 19:00:00 10.3 16 Sudoeste 34 Sudoeste 0 -- -- 68
2020-01-27 18:00:00 10.3 17 Sudoeste 37 Sudoeste 0 -- -- 68
2020-01-27 17:00:00 10.4 15 Sudoeste 39 Sudoeste 0 -- -- 70
2020-01-27 16:00:00 9.7 15 Sudoeste 38 Sudoeste 0 -- -- 76
2020-01-27 15:00:00 9.5 12 Sudoeste 40 Sudoeste 0 -- -- 76
2020-01-27 14:00:00 8.7 23 Sudoeste 43 Sudoeste 0.1 -- -- 79
2020-01-27 13:00:00 7.2 15 Sudoeste 41 Sur 0.9 -- -- 87
2020-01-27 12:00:00 7.4 16 Sudoeste 37 Sudoeste 0 -- -- 81
2020-01-27 11:00:00 6.5 14 Sudoeste 44 Sudoeste 0.2 -- -- 84
2020-01-27 10:00:00 6.6 24 Sudoeste 44 Sudoeste 0 -- -- 79
2020-01-27 09:00:00 6.4 24 Sudoeste 44 Sudoeste 0 -- -- 78
2020-01-27 08:00:00 6.4 22 Sudoeste 49 Sudoeste 0 -- -- 76
2020-01-27 07:00:00 6.4 21 Sudoeste 47 Sudoeste 0 -- -- 78
2020-01-27 06:00:00 6.8 17 Sudoeste 35 Sudoeste 0 -- -- 75
2020-01-27 05:00:00 6.5 10 Sur 30 Sur 0 -- -- 77
2020-01-27 04:00:00 6.9 13 Sudoeste 31 Sudoeste 0 -- -- 75
2020-01-27 03:00:00 6.4 13 Sudoeste 27 Oeste 0 -- -- 76
2020-01-27 02:00:00 6.5 10 Sudoeste 30 Sudoeste 0 -- -- 77
2020-01-27 01:00:00 6.2 18 Sudoeste 31 Sudoeste 0 -- -- 76
2020-01-27 00:00:00 5.9 18 Sudoeste 35 Sudoeste 0 -- -- 78
2020-01-26 23:00:00 5.4 13 Sudoeste 30 Oeste 0 -- -- 79
2020-01-26 22:00:00 5 15 Sudoeste 27 Sudoeste 0 -- -- 81
2020-01-26 21:00:00 4.5 11 Sudoeste 31 Sudoeste 0 -- -- 79
2020-01-26 20:00:00 3.7 13 Sudoeste 31 Sudoeste 0 -- -- 79
2020-01-26 19:00:00 3.7 18 Sudoeste 41 Sudoeste 0 -- -- 80
2020-01-26 18:00:00 4.1 9 Oeste 32 Sudoeste 0 -- -- 75
2020-01-26 17:00:00 5.4 10 Sudoeste 30 Sudoeste 0 -- -- 70
2020-01-26 16:00:00 6.3 14 Sur 26 Sur 0 -- -- 66
2020-01-26 15:00:00 7.6 14 Sur 30 Sudoeste 0 -- -- 63
2020-01-26 14:00:00 7.6 16 Sudoeste 28 Sudoeste 0 -- -- 65
2020-01-26 13:00:00 5.7 6 Sudoeste 12 Sudoeste 0 -- -- 82
2020-01-26 12:00:00 3.4 3 Sudoeste 7 Oeste 0 -- -- 95
2020-01-26 11:00:00 0.8 4 Oeste 9 Sudoeste 0 -- -- 95
2020-01-26 10:00:00 -0.8 4 Sudoeste 8 Sudoeste 0 -- -- 95
2020-01-26 09:00:00 -1.1 0 Calma 5 Oeste 0 -- -- 95
2020-01-26 08:00:00 -0.8 3 Oeste 6 Sudoeste 0 -- -- 95
2020-01-26 07:00:00 -0.3 0 Calma -- -- 0 -- -- 96
2020-01-26 06:00:00 -0.3 0 Calma -- -- 0 -- -- 95
2020-01-26 05:00:00 0 0 Calma -- -- 0 -- -- 96
2020-01-26 04:00:00 0.3 0 Calma -- -- 0 -- -- 96
2020-01-26 03:00:00 0.9 0 Calma 4 Oeste 0 -- -- 95
2020-01-26 02:00:00 1.5 0 Calma 6 Noroeste 0 -- -- 95
2020-01-26 01:00:00 2.6 4 Noroeste 6 Noroeste 0 -- -- 95
2020-01-26 00:00:00 2.9 0 Calma 6 Noroeste 0 -- -- 94
2020-01-25 23:00:00 3.4 6 Noroeste 9 Norte 0 -- -- 94
2020-01-25 22:00:00 4.4 3 Norte 7 Noroeste 0 -- -- 93
2020-01-25 21:00:00 5 0 Calma -- -- 0 -- -- 92
2020-01-25 20:00:00 5.6 0 Calma 5 Sudeste 0.2 -- -- 91
2020-01-25 19:00:00 6.4 0 Calma 5 Oeste 0.2 -- -- 86
2020-01-25 18:00:00 7.3 0 Calma 8 Norte 0 -- -- 73
2020-01-25 17:00:00 7.5 6 Nordeste 12 Nordeste 0 -- -- 69
2020-01-25 16:00:00 8 0 Calma 7 Nordeste 0 -- -- 65
2020-01-25 15:00:00 7.9 0 Calma 7 Nordeste 0 -- -- 68
2020-01-25 14:00:00 7.7 2 Nordeste 7 Nordeste 0 -- -- 71
2020-01-25 13:00:00 7 2 Sudoeste 8 Este 0 -- -- 79
2020-01-25 12:00:00 5.1 3 Nordeste 6 Nordeste 0 -- -- 86
2020-01-25 11:00:00 4.2 0 Calma 5 Este 0 -- -- 94
2020-01-25 10:00:00 3.3 0 Calma -- -- 0 -- -- 95
2020-01-25 09:00:00 2.3 0 Calma 4 Este 0 -- -- 95
2020-01-25 08:00:00 2.5 0 Calma 5 Nordeste 0 -- -- 95
2020-01-25 07:00:00 2.9 0 Calma -- -- 0 -- -- 95
2020-01-25 06:00:00 3.4 0 Calma -- -- 0 -- -- 95
2020-01-25 05:00:00 3.7 0 Calma -- -- 0 -- -- 94
2020-01-25 04:00:00 3.8 0 Calma -- -- 0 -- -- 93
2020-01-25 03:00:00 4.2 0 Calma 5 Norte 0 -- -- 93
2020-01-25 02:00:00 4.3 0 Calma 7 Noroeste 0 -- -- 93
2020-01-25 01:00:00 4.1 3 Norte 9 Nordeste 0 -- -- 93
2020-01-25 00:00:00 4.2 3 Norte 7 Norte 0 -- -- 93
2020-01-24 23:00:00 4.9 0 Calma 6 Nordeste 0 -- -- 91
2020-01-24 22:00:00 5.9 2 Nordeste 13 Sudoeste 0.1 -- -- 87
2020-01-24 21:00:00 6.1 2 Sudoeste 8 Sudoeste 0.1 -- -- 85
2020-01-24 20:00:00 5.8 4 Noroeste 9 Noroeste 0 -- -- 79
2020-01-24 19:00:00 6.5 2 Noroeste 5 Noroeste 0 -- -- 75
2020-01-24 18:00:00 8 2 Sudoeste 9 Sudoeste 0 -- -- 66
2020-01-24 17:00:00 8.9 6 Sudoeste 14 Sudoeste 0 -- -- 60
2020-01-24 16:00:00 9.3 6 Sudoeste 14 Sudoeste 0 -- -- 59
2020-01-24 15:00:00 9.3 8 Sudoeste 15 Sudoeste 0 -- -- 62
2020-01-24 14:00:00 8.5 7 Sudoeste 13 Sudoeste 0 -- -- 65
2020-01-24 13:00:00 7.7 4 Sur 12 Sudoeste 0 -- -- 70
2020-01-24 12:00:00 6.4 2 Sur 8 Este 0 -- -- 75
2020-01-24 11:00:00 4.6 3 Este 6 Este 0 -- -- 88
2020-01-24 10:00:00 1.3 0 Calma 6 Este 0 -- -- 95
2020-01-24 09:00:00 0 3 Nordeste 5 Nordeste 0 -- -- 95
2020-01-24 08:00:00 0.4 2 Norte 6 Noroeste 0 -- -- 95
2020-01-24 07:00:00 0.8 0 Calma 5 Sudoeste 0 -- -- 95
2020-01-24 06:00:00 1 3 Nordeste 4 Este 0 -- -- 95
2020-01-24 05:00:00 1 0 Calma 4 Sudoeste 0 -- -- 94
2020-01-24 04:00:00 1.3 0 Calma 7 Nordeste 0 -- -- 93
2020-01-24 03:00:00 1.5 2 Sudoeste 8 Noroeste 0 -- -- 93
2020-01-24 02:00:00 1.1 3 Norte 10 Nordeste 0 -- -- 92
2020-01-24 01:00:00 1.5 4 Norte 10 Norte 0 -- -- 92
2020-01-24 00:00:00 1.5 0 Calma 9 Noroeste 0 -- -- 92
2020-01-23 23:00:00 1.7 5 Norte 14 Sur 0 -- -- 90
2020-01-23 22:00:00 2.7 3 Este 10 Sudeste 0 -- -- 89
2020-01-23 21:00:00 3.1 2 Noroeste 8 Oeste 0 -- -- 87
2020-01-23 20:00:00 3.8 4 Norte 9 Nordeste 0 -- -- 82
2020-01-23 19:00:00 5.2 6 Norte 10 Noroeste 0 -- -- 77
2020-01-23 18:00:00 7.5 3 Nordeste 10 Nordeste 0 -- -- 64
2020-01-23 17:00:00 9.3 0 Calma 5 Sudeste 0 -- -- 59
2020-01-23 16:00:00 9.2 0 Calma 5 Sudeste 0 -- -- 60
2020-01-23 15:00:00 8.6 0 Calma 8 Sudoeste 0 -- -- 62
2020-01-23 14:00:00 7.2 5 Oeste 9 Sudoeste 0 -- -- 70
2020-01-23 13:00:00 5.4 3 Sur 14 Sudoeste 0 -- -- 77
2020-01-23 12:00:00 4.5 5 Sudoeste 11 Sudoeste 0 -- -- 81
2020-01-23 11:00:00 3.8 5 Sudoeste 12 Sudoeste 0 -- -- 85
2020-01-23 10:00:00 3.2 2 Noroeste 9 Oeste 0 -- -- 90
2020-01-23 09:00:00 2.7 0 Calma 5 Oeste 0 -- -- 94
2020-01-23 08:00:00 2.5 0 Calma 4 Sudeste 0 -- -- 94
2020-01-23 07:00:00 2.5 0 Calma 7 Nordeste 0 -- -- 94
2020-01-23 06:00:00 2.5 0 Calma -- -- 0 -- -- 94
2020-01-23 05:00:00 2.5 0 Calma 4 Oeste 0 -- -- 94
2020-01-23 04:00:00 2.4 0 Calma 7 Sudoeste 0 -- -- 94
2020-01-23 03:00:00 2.2 4 Sudoeste 7 Sudoeste 0 -- -- 94
2020-01-23 02:00:00 1.8 0 Calma 5 Noroeste 0 -- -- 94
2020-01-23 01:00:00 1.5 2 Nordeste 6 Noroeste 0 -- -- 93
2020-01-23 00:00:00 1.4 2 Noroeste 10 Noroeste 0 -- -- 92
2020-01-22 23:00:00 2.6 3 Norte 8 Sudoeste 0 -- -- 91
2020-01-22 22:00:00 4.8 0 Calma 11 Nordeste 0 -- -- 87
2020-01-22 21:00:00 4.3 4 Nordeste 9 Norte 0 -- -- 90
2020-01-22 20:00:00 4.2 2 Oeste 10 Este 0 -- -- 88
2020-01-22 19:00:00 4.8 4 Nordeste 12 Este 0 -- -- 85
2020-01-22 18:00:00 5.9 3 Nordeste 17 Nordeste 0 -- -- 78
2020-01-22 17:00:00 6.6 6 Nordeste 16 Nordeste 0 -- -- 73
2020-01-22 16:00:00 7.5 7 Nordeste 18 Nordeste 0 -- -- 70
2020-01-22 15:00:00 7.8 6 Nordeste 15 Nordeste 0 -- -- 70
2020-01-22 14:00:00 7.9 5 Nordeste 17 Nordeste 0 -- -- 74
2020-01-22 13:00:00 6.4 6 Nordeste 12 Nordeste 0 -- -- 81
2020-01-22 12:00:00 5.3 5 Nordeste 11 Nordeste 0 -- -- 91
2020-01-22 11:00:00 5 0 Calma 7 Sudoeste 0 -- -- 93
2020-01-22 10:00:00 4.4 4 Sudoeste 6 Sudoeste 0.1 -- -- 95
2020-01-22 09:00:00 4.1 0 Calma 5 Nordeste 0.2 -- -- 94
2020-01-22 08:00:00 4.1 0 Calma 12 Este 0.4 -- -- 91
2020-01-22 07:00:00 4.3 5 Nordeste 15 Nordeste 0.1 -- -- 89
2020-01-22 06:00:00 4.5 7 Nordeste 19 Nordeste 0.2 -- -- 87
2020-01-22 05:00:00 4.6 9 Nordeste 18 Nordeste 0 -- -- 91
2020-01-22 04:00:00 4.7 10 Nordeste 24 Nordeste 0 -- -- 89
2020-01-22 03:00:00 4.3 8 Nordeste 24 Nordeste 0 -- -- 91
2020-01-22 02:00:00 4 10 Nordeste 22 Nordeste 0 -- -- 90
2020-01-22 01:00:00 3.9 6 Nordeste 17 Nordeste 0 -- -- 88
2020-01-22 00:00:00 3.8 7 Nordeste 30 Nordeste 0 -- -- 87
2020-01-21 23:00:00 3.6 12 Norte 26 Nordeste 0 -- -- 87
2020-01-21 22:00:00 3.2 4 Nordeste 12 Nordeste 0 -- -- 87
2020-01-21 21:00:00 3 6 Norte 30 Nordeste 0 -- -- 86
2020-01-21 20:00:00 2.5 15 Nordeste 29 Nordeste 0 -- -- 91
2020-01-21 19:00:00 2.6 13 Nordeste 32 Nordeste 0 -- -- 92
2020-01-21 18:00:00 2.7 13 Nordeste 33 Nordeste 0.1 -- -- 91
2020-01-21 17:00:00 2.4 11 Nordeste 24 Nordeste 0 -- -- 91
2020-01-21 16:00:00 2.3 11 Nordeste 31 Nordeste 0.4 -- -- 92
2020-01-21 15:00:00 2.4 8 Nordeste 22 Nordeste 0.5 -- -- 91
2020-01-21 14:00:00 2.3 10 Nordeste 31 Nordeste 0.3 -- -- 85
2020-01-21 13:00:00 2.9 8 Nordeste 32 Nordeste 0 -- -- 79
2020-01-21 12:00:00 3 14 Nordeste 31 Nordeste 0 -- -- 77
2020-01-21 11:00:00 3.1 11 Nordeste 27 Nordeste 0 -- -- 71
2020-01-21 10:00:00 2.5 14 Nordeste 32 Nordeste 0 -- -- 73
2020-01-21 09:00:00 2.3 10 Nordeste 30 Nordeste 0 -- -- 75
2020-01-21 08:00:00 2.1 11 Nordeste 31 Nordeste 0 -- -- 75
2020-01-21 07:00:00 1.6 12 Nordeste 25 Nordeste 0 -- -- 76
2020-01-21 06:00:00 1.2 3 Oeste 22 Nordeste 0 -- -- 74
2020-01-21 05:00:00 0.5 3 Sudoeste 14 Nordeste 0 -- -- 79
2020-01-21 04:00:00 1.1 4 Nordeste 17 Nordeste 0 -- -- 74
2020-01-21 03:00:00 1.7 4 Nordeste 21 Nordeste 0 -- -- 73
2020-01-21 02:00:00 2 9 Nordeste 26 Nordeste 0 -- -- 71
2020-01-21 01:00:00 2 9 Norte 26 Norte 0 -- -- 74
2020-01-21 00:00:00 1.8 6 Norte 30 Nordeste 0 -- -- 74
2020-01-20 23:00:00 1.5 8 Nordeste 26 Nordeste 0 -- -- 78
2020-01-20 22:00:00 1.4 9 Norte 35 Nordeste 0 -- -- 75
2020-01-20 21:00:00 1 10 Nordeste 28 Nordeste 0 -- -- 78
2020-01-20 20:00:00 1.2 10 Nordeste 32 Nordeste 0 -- -- 74
2020-01-20 19:00:00 1.1 13 Nordeste 30 Nordeste 0 -- -- 70
2020-01-20 18:00:00 1.3 14 Nordeste 33 Nordeste 0 -- -- 68
2020-01-20 17:00:00 1.8 10 Nordeste 30 Nordeste 0 -- -- 67
2020-01-20 16:00:00 2.3 11 Norte 34 Nordeste 0 -- -- 64
2020-01-20 15:00:00 2.4 13 Nordeste 33 Nordeste 0 -- -- 63
2020-01-20 14:00:00 2.4 13 Nordeste 41 Nordeste 0 -- -- 66
2020-01-20 13:00:00 2 15 Nordeste 38 Nordeste 0 -- -- 65
2020-01-20 12:00:00 1.6 14 Nordeste 32 Nordeste 0 -- -- 69
2020-01-20 11:00:00 1.5 11 Nordeste 36 Nordeste 0 -- -- 66
2020-01-20 10:00:00 0.9 16 Nordeste 33 Nordeste 0 -- -- 68
2020-01-20 09:00:00 0.6 10 Nordeste 28 Nordeste 0 -- -- 71
2020-01-20 08:00:00 0.3 10 Nordeste 27 Nordeste 0 -- -- 77
2020-01-20 07:00:00 0.3 8 Norte 24 Nordeste 0 -- -- 76
2020-01-20 06:00:00 0.4 12 Nordeste 39 Nordeste 0 -- -- 72
2020-01-20 05:00:00 1.1 8 Nordeste 34 Nordeste 0 -- -- 65
2020-01-20 04:00:00 0.8 11 Nordeste 37 Nordeste 0 -- -- 75
2020-01-20 03:00:00 0.7 9 Norte 30 Nordeste 0 -- -- 73
2020-01-20 02:00:00 0.9 10 Norte 28 Norte 0 -- -- 74
2020-01-20 01:00:00 1.5 4 Norte 36 Nordeste 0.1 -- -- 70
2020-01-20 00:00:00 1 4 Norte 28 Nordeste 0 -- -- 71
2020-01-19 23:00:00 1.8 10 Nordeste 28 Nordeste 0 -- -- 65
2020-01-19 22:00:00 2.1 10 Nordeste 28 Nordeste 0 -- -- 68
2020-01-19 21:00:00 2.5 10 Nordeste 26 Nordeste 0 -- -- 62
2020-01-19 20:00:00 2.5 11 Nordeste 34 Nordeste 0 -- -- 64
2020-01-19 19:00:00 2.4 14 Nordeste 37 Nordeste 0 -- -- 60
2020-01-19 18:00:00 2.8 13 Norte 40 Nordeste 0 -- -- 61
2020-01-19 17:00:00 3.8 12 Norte 40 Nordeste 0 -- -- 56
2020-01-19 16:00:00 4.8 17 Norte 47 Nordeste 0 -- -- 52
2020-01-19 15:00:00 5 12 Norte 50 Nordeste 0 -- -- 57
2020-01-19 14:00:00 4.6 14 Norte 40 Nordeste 0 -- -- 63
2020-01-19 13:00:00 4.1 11 Norte 31 Nordeste 0 -- -- 69
2020-01-19 12:00:00 4.2 13 Nordeste 34 Nordeste 0 -- -- 66
2020-01-19 11:00:00 3.8 13 Nordeste 32 Nordeste 0 -- -- 71
2020-01-19 10:00:00 3.4 9 Norte 24 Nordeste 0 -- -- 79
2020-01-19 09:00:00 3.6 10 Nordeste 38 Nordeste 0.4 -- -- 88
2020-01-19 08:00:00 3.9 14 Nordeste 36 Nordeste 0.1 -- -- 88
2020-01-19 07:00:00 4.2 13 Nordeste 39 Nordeste 0.1 -- -- 89
2020-01-19 06:00:00 4.1 15 Nordeste 39 Nordeste 0 -- -- 88
2020-01-19 05:00:00 4.6 9 Nordeste 23 Nordeste 0.2 -- -- 92
2020-01-19 04:00:00 2.4 0 Calma 6 Sudoeste 0.2 -- -- 96
2020-01-19 03:00:00 2 0 Calma -- -- 0.1 -- -- 96
2020-01-19 02:00:00 1.7 0 Calma -- -- 0.3 -- -- 96
2020-01-19 01:00:00 1.6 0 Calma 5 Noroeste 0 -- -- 96
2020-01-19 00:00:00 1.3 3 Oeste 6 Noroeste 0 -- -- 96
2020-01-18 23:00:00 1.7 0 Calma 8 Noroeste 0 -- -- 96
2020-01-18 22:00:00 1.8 0 Calma 10 Noroeste 0 -- -- 95
2020-01-18 21:00:00 1.7 5 Noroeste 10 Norte 0 -- -- 94
2020-01-18 20:00:00 3.1 0 Calma 6 Noroeste 0 -- -- 93
2020-01-18 19:00:00 4.5 3 Este 15 Nordeste 2.2 -- -- 92
2020-01-18 18:00:00 5.2 4 Nordeste 38 Nordeste 2.3 -- -- 90
2020-01-18 17:00:00 7.5 2 Nordeste 15 Nordeste 1.1 -- -- 92
2020-01-18 16:00:00 8.7 2 Norte 30 Sudoeste 0.7 -- -- 87
2020-01-18 15:00:00 8.6 14 Sudoeste 39 Sudoeste 0 -- -- 78
2020-01-18 14:00:00 8.1 25 Sudoeste 46 Sudoeste 0 -- -- 77
2020-01-18 13:00:00 7.8 21 Sudoeste 38 Sudoeste 0 -- -- 74
2020-01-18 12:00:00 7.2 21 Sudoeste 37 Oeste 0 -- -- 71
2020-01-18 11:00:00 7 12 Sudoeste 24 Sudoeste 0 -- -- 67
2020-01-18 10:00:00 5.5 12 Sudoeste 23 Sudoeste 0 -- -- 72
2020-01-18 09:00:00 3 2 Noroeste 20 Sudoeste 0 -- -- 78
2020-01-18 08:00:00 3.6 9 Oeste 23 Oeste 0 -- -- 74
2020-01-18 07:00:00 4.2 10 Oeste 21 Oeste 0 -- -- 75
2020-01-18 06:00:00 1.7 0 Calma 8 Norte 0 -- -- 91
2020-01-18 05:00:00 1.6 0 Calma 8 Noroeste 0 -- -- 92
2020-01-18 04:00:00 1.1 0 Calma 5 Oeste 0 -- -- 95
2020-01-18 03:00:00 0.8 0 Calma 5 Sudoeste 0 -- -- 95
2020-01-18 02:00:00 0.5 3 Sudoeste 9 Nordeste 0 -- -- 95
2020-01-18 01:00:00 0.7 0 Calma 7 Sudoeste 0 -- -- 93
2020-01-18 00:00:00 0.9 0 Calma 10 Sudeste 0 -- -- 92
2020-01-17 23:00:00 0.8 0 Calma 8 Norte 0 -- -- 91
2020-01-17 22:00:00 1.4 4 Norte 9 Noroeste 0 -- -- 88
2020-01-17 21:00:00 2.2 5 Norte 10 Noroeste 0 -- -- 86
2020-01-17 20:00:00 3.4 0 Calma 8 Nordeste 0 -- -- 81
2020-01-17 19:00:00 5 3 Este 15 Nordeste 0 -- -- 74
2020-01-17 18:00:00 6.4 5 Nordeste 21 Nordeste 0 -- -- 68
2020-01-17 17:00:00 7.2 7 Nordeste 18 Nordeste 0 -- -- 65
2020-01-17 16:00:00 8.2 12 Nordeste 18 Nordeste 0 -- -- 62
2020-01-17 15:00:00 8.8 8 Nordeste 18 Nordeste 0 -- -- 62
2020-01-17 14:00:00 8 10 Nordeste 24 Este 0 -- -- 65
2020-01-17 13:00:00 9.5 12 Sudoeste 23 Sudoeste 0 -- -- 52
2020-01-17 12:00:00 8.5 12 Sudoeste 24 Oeste 0 -- -- 57
2020-01-17 11:00:00 7.7 6 Oeste 16 Oeste 0 -- -- 63
2020-01-17 10:00:00 6.7 12 Sudoeste 26 Sudoeste 0 -- -- 68
2020-01-17 09:00:00 5.9 14 Sudoeste 26 Sudoeste 0 -- -- 70
2020-01-17 08:00:00 5.7 6 Sur 23 Sudoeste 0 -- -- 73
2020-01-17 07:00:00 7.1 12 Sudoeste 26 Sudoeste 0 -- -- 74
2020-01-17 06:00:00 7.3 12 Sudoeste 31 Sudoeste 0 -- -- 74
2020-01-17 05:00:00 7.6 19 Sudoeste 36 Sudoeste 0 -- -- 79
2020-01-17 04:00:00 7.9 15 Sudoeste 31 Sudoeste 0 -- -- 77
2020-01-17 03:00:00 8.4 13 Sudoeste 37 Sudoeste 0 -- -- 73
2020-01-17 02:00:00 8.5 21 Sudoeste 43 Sudoeste 0 -- -- 72
2020-01-17 01:00:00 8.6 16 Sudoeste 37 Sudoeste 0 -- -- 70
2020-01-17 00:00:00 8.5 21 Sudoeste 51 Sudoeste 0 -- -- 71
2020-01-16 23:00:00 8.4 26 Sudoeste 50 Sudoeste 0 -- -- 70
2020-01-16 22:00:00 8.4 26 Sudoeste 56 Sudoeste 0 -- -- 66
2020-01-16 21:00:00 10.2 21 Sudoeste 57 Sudoeste 0 -- -- 48
2020-01-16 20:00:00 10.1 23 Sudoeste 58 Sudoeste 0 -- -- 43
2020-01-16 19:00:00 10.5 23 Sudoeste 46 Sudoeste 0 -- -- 40
2020-01-16 18:00:00 10.9 22 Sudoeste 54 Sudoeste 0 -- -- 41
2020-01-16 17:00:00 12.2 21 Sudoeste 56 Sudoeste 0 -- -- 40
2020-01-16 16:00:00 13.5 28 Sudoeste 57 Sudoeste 0 -- -- 40
2020-01-16 15:00:00 13.1 25 Sudoeste 52 Sudoeste 0 -- -- 47
2020-01-16 14:00:00 12.4 22 Sudoeste 60 Sudoeste 0 -- -- 59
2020-01-16 13:00:00 11.5 22 Sudoeste 41 Sudoeste 0 -- -- 67
2020-01-16 12:00:00 10.9 20 Sudoeste 38 Sudoeste 0 -- -- 71
2020-01-16 11:00:00 10.5 17 Sudoeste 36 Sudoeste 0 -- -- 74
2020-01-16 10:00:00 9.1 17 Sudoeste 44 Sudoeste 0 -- -- 79
2020-01-16 09:00:00 8.8 22 Sudoeste 39 Sudoeste 0 -- -- 80
2020-01-16 08:00:00 8.7 20 Sudoeste 35 Sudoeste 0 -- -- 79
2020-01-16 07:00:00 9 17 Sudoeste 33 Sudoeste 0 -- -- 78
2020-01-16 06:00:00 9.3 15 Sudoeste 27 Sudoeste 0 -- -- 78
2020-01-16 05:00:00 9.6 16 Sudoeste 33 Sudoeste 0 -- -- 78
2020-01-16 04:00:00 9.2 12 Sudoeste 28 Sudoeste 0 -- -- 82
2020-01-16 03:00:00 8.9 15 Sudoeste 37 Sudoeste 0 -- -- 84
2020-01-16 02:00:00 8.9 17 Sudoeste 33 Sudoeste 0 -- -- 83
2020-01-16 01:00:00 8.7 16 Sudoeste 34 Sudoeste 0 -- -- 83
2020-01-16 00:00:00 9.1 16 Sudoeste 40 Sudoeste 0 -- -- 81
2020-01-15 23:00:00 9.2 19 Sudoeste 36 Sudoeste 0 -- -- 80
2020-01-15 22:00:00 8.9 15 Sudoeste 33 Sudoeste 0 -- -- 79
2020-01-15 21:00:00 8.7 17 Sudoeste 28 Sudoeste 0 -- -- 77
2020-01-15 20:00:00 8.7 10 Sudoeste 19 Sudoeste 0 -- -- 76
2020-01-15 19:00:00 9 11 Sudoeste 19 Sudoeste 0 -- -- 72
2020-01-15 18:00:00 9.4 8 Sudoeste 22 Sudoeste 0 -- -- 70
2020-01-15 17:00:00 9.7 13 Sudoeste 35 Sudoeste 0 -- -- 70
2020-01-15 16:00:00 10.3 17 Sudoeste 38 Sudoeste 0 -- -- 65
2020-01-15 15:00:00 10.4 15 Sudoeste 37 Sudoeste 0 -- -- 62
2020-01-15 14:00:00 9.9 21 Sudoeste 49 Sudoeste 0 -- -- 64
2020-01-15 13:00:00 10.4 13 Sudoeste 33 Sudoeste 0 -- -- 66
2020-01-15 12:00:00 8.2 14 Sudoeste 33 Sudoeste 0 -- -- 75
2020-01-15 11:00:00 8.1 17 Sudoeste 40 Sudoeste 0 -- -- 75
2020-01-15 10:00:00 8.2 16 Sudoeste 39 Sudoeste 0 -- -- 71
2020-01-15 09:00:00 7.8 23 Sudoeste 58 Sudoeste 0 -- -- 73
2020-01-15 08:00:00 8 26 Sudoeste 56 Sur 0 -- -- 70
2020-01-15 07:00:00 7.9 27 Sudoeste 54 Sudoeste 0 -- -- 70
2020-01-15 06:00:00 8 24 Sudoeste 53 Sudoeste 0 -- -- 72
2020-01-15 05:00:00 8.1 22 Sudoeste 44 Sudoeste 0 -- -- 73
2020-01-15 04:00:00 8 24 Sudoeste 52 Sur 0 -- -- 74
2020-01-15 03:00:00 7.4 22 Sudoeste 46 Sudoeste 0 -- -- 82
2020-01-15 02:00:00 7.3 25 Sudoeste 49 Sudoeste 0 -- -- 81
2020-01-15 01:00:00 7.3 21 Sudoeste 52 Sudoeste 0 -- -- 77
2020-01-15 00:00:00 7.1 21 Sudoeste 47 Sudoeste 0 -- -- 75
2020-01-14 23:00:00 7.2 21 Sudoeste 44 Sudoeste 0 -- -- 71
2020-01-14 22:00:00 7.6 23 Sudoeste 47 Sudoeste 0 -- -- 67
2020-01-14 21:00:00 8.1 23 Sudoeste 46 Sudoeste 0 -- -- 65
2020-01-14 20:00:00 8.5 27 Sudoeste 57 Sur 0 -- -- 62
2020-01-14 19:00:00 8.4 28 Sudoeste 49 Sudoeste 0 -- -- 59
2020-01-14 18:00:00 8.2 24 Sudoeste 50 Sudoeste 0 -- -- 63
2020-01-14 17:00:00 8.2 24 Sudoeste 50 Sudoeste 0 -- -- 65
2020-01-14 16:00:00 8.2 29 Sudoeste 55 Sudoeste 0 -- -- 62
2020-01-14 15:00:00 9.1 32 Sudoeste 55 Sudoeste 0 -- -- 58
2020-01-14 14:00:00 7.9 27 Sudoeste 46 Sudoeste 0 -- -- 63
2020-01-14 13:00:00 6.7 19 Sudoeste 37 Sudoeste 0 -- -- 68
2020-01-14 12:00:00 5.9 19 Sur 34 Sudoeste 0 -- -- 73
2020-01-14 11:00:00 4.7 19 Sudoeste 40 Sudoeste 0 -- -- 78
2020-01-14 10:00:00 4.1 13 Sudoeste 33 Sudoeste 0 -- -- 83
2020-01-14 09:00:00 3.9 22 Sudoeste 35 Sudoeste 0 -- -- 84
2020-01-14 08:00:00 4.3 20 Sudoeste 36 Sudoeste 0 -- -- 83
2020-01-14 07:00:00 4.2 20 Sudoeste 34 Sudoeste 0 -- -- 84
2020-01-14 06:00:00 3.9 18 Sudoeste 37 Sudoeste 0 -- -- 83
2020-01-14 05:00:00 3.8 21 Sudoeste 33 Sudoeste 0 -- -- 83
2020-01-14 04:00:00 3.3 19 Sudoeste 35 Sudoeste 0 -- -- 83
2020-01-14 03:00:00 3.3 16 Sudoeste 36 Sudoeste 0 -- -- 81
2020-01-14 02:00:00 3.5 19 Sudoeste 31 Sudoeste 0 -- -- 79
2020-01-14 01:00:00 3 16 Sudoeste 29 Sur 0 -- -- 79
2020-01-14 00:00:00 2.7 4 Sudoeste 18 Oeste 0 -- -- 79
2020-01-13 23:00:00 2.3 9 Oeste 28 Sudoeste 0 -- -- 79
2020-01-13 22:00:00 1.6 14 Sudoeste 35 Oeste 0 -- -- 80
2020-01-13 21:00:00 2 12 Sudoeste 34 Sudoeste 0 -- -- 76
2020-01-13 20:00:00 1.2 22 Sudoeste 36 Sudoeste 0 -- -- 77
2020-01-13 19:00:00 1.3 21 Sudoeste 32 Sudoeste 0 -- -- 74
2020-01-13 18:00:00 1.6 13 Sudoeste 28 Sudoeste 0 -- -- 71
2020-01-13 17:00:00 4.1 7 Sur 27 Sur 0 -- -- 57
2020-01-13 16:00:00 5.9 15 Sudoeste 28 Sudoeste 0 -- -- 46
2020-01-13 15:00:00 6.6 6 Sudeste 28 Sudoeste 0 -- -- 45
2020-01-13 14:00:00 6.4 15 Sudoeste 33 Sur 0 -- -- 38
2020-01-13 13:00:00 4.1 9 Sudoeste 14 Sudoeste 0 -- -- 73
2020-01-13 12:00:00 1.9 6 Sudoeste 11 Sudoeste 0 -- -- 88
2020-01-13 11:00:00 -0.9 3 Sudoeste 7 Oeste 0 -- -- 93
2020-01-13 10:00:00 -2.9 4 Sudoeste 7 Oeste 0 -- -- 94
2020-01-13 09:00:00 -4.7 0 Calma 4 Sudoeste 0 -- -- 93
2020-01-13 08:00:00 -4.9 0 Calma -- -- 0 -- -- 94
2020-01-13 07:00:00 -5.1 0 Calma -- -- 0 -- -- 94
2020-01-13 06:00:00 -5 0 Calma -- -- 0 -- -- 95
2020-01-13 05:00:00 -4.8 0 Calma 5 Nordeste 0 -- -- 95
2020-01-13 04:00:00 -4.4 0 Calma -- -- 0 -- -- 95
2020-01-13 03:00:00 -3.7 0 Calma -- -- 0 -- -- 95
2020-01-13 02:00:00 -3 0 Calma -- -- 0 -- -- 95
2020-01-13 01:00:00 -2.4 0 Calma -- -- 0 -- -- 95
2020-01-13 00:00:00 -2.1 0 Calma 5 Nordeste 0 -- -- 94
2020-01-12 23:00:00 -2.2 0 Calma 3 Este 0 -- -- 93
2020-01-12 22:00:00 -1.5 0 Calma 3 Nordeste 0 -- -- 92
2020-01-12 21:00:00 -1 0 Calma 4 Nordeste 0 -- -- 91
2020-01-12 20:00:00 0 0 Calma 3 Norte 0 -- -- 87
2020-01-12 19:00:00 1.7 0 Calma 10 Norte 0 -- -- 84
2020-01-12 18:00:00 3.3 6 Norte 9 Norte 0 -- -- 78
2020-01-12 17:00:00 8.8 0 Calma 5 Sudeste 0 -- -- 55
2020-01-12 16:00:00 6.7 0 Calma 8 Norte 0 -- -- 60
2020-01-12 15:00:00 4.4 4 Nordeste 9 Este 0 -- -- 74
2020-01-12 14:00:00 1.6 4 Nordeste 8 Este 0 -- -- 86
2020-01-12 13:00:00 0.4 3 Sudeste 7 Sudeste 0 -- -- 96
2020-01-12 12:00:00 -1.2 3 Oeste 9 Sudoeste 0 -- -- 95
2020-01-12 11:00:00 -1.9 4 Oeste 10 Oeste 0 -- -- 95
2020-01-12 10:00:00 -2.1 5 Oeste 9 Sudoeste 0 -- -- 96
2020-01-12 09:00:00 -2.1 4 Oeste 8 Sur 0 -- -- 96
2020-01-12 08:00:00 -2.2 0 Calma -- -- 0 -- -- 95
2020-01-12 07:00:00 -2.8 0 Calma -- -- 0 -- -- 96
2020-01-12 06:00:00 -3.7 0 Calma -- -- 0 -- -- 95
2020-01-12 05:00:00 -3.6 0 Calma 6 Sudoeste 0 -- -- 95
2020-01-12 04:00:00 -2.7 2 Sur 4 Sudoeste 0 -- -- 95
2020-01-12 03:00:00 -2.8 0 Calma 7 Nordeste 0 -- -- 95
2020-01-12 02:00:00 -3.7 0 Calma 6 Nordeste 0 -- -- 94
2020-01-12 01:00:00 -3.2 0 Calma -- -- 0 -- -- 93
2020-01-12 00:00:00 -2.7 0 Calma -- -- 0 -- -- 93
2020-01-11 23:00:00 -2 0 Calma 4 Norte 0 -- -- 92
2020-01-11 22:00:00 -1.2 0 Calma -- -- 0 -- -- 91
2020-01-11 21:00:00 -0.2 0 Calma 7 Noroeste 0 -- -- 88
2020-01-11 20:00:00 1.5 0 Calma 10 Norte 0 -- -- 83
2020-01-11 19:00:00 3.2 5 Norte 11 Noroeste 0 -- -- 78
2020-01-11 18:00:00 5.3 4 Norte 9 Norte 0 -- -- 66
2020-01-11 17:00:00 10.7 2 Sur 10 Sudeste 0 -- -- 45
2020-01-11 16:00:00 10.8 5 Sur 11 Sudeste 0 -- -- 51
2020-01-11 15:00:00 9.4 5 Sur 8 Sudeste 0 -- -- 53
2020-01-11 14:00:00 5.9 3 Nordeste 7 Este 0 -- -- 71
2020-01-11 13:00:00 2.7 0 Calma 8 Sudoeste 0 -- -- 86
2020-01-11 12:00:00 1 3 Oeste 8 Sudoeste 0 -- -- 96
2020-01-11 11:00:00 0 3 Oeste 10 Sudoeste 0 -- -- 96
2020-01-11 10:00:00 -0.6 5 Oeste 12 Sudoeste 0 -- -- 96
2020-01-11 09:00:00 -0.3 6 Sudoeste 11 Oeste 0 -- -- 96
2020-01-11 08:00:00 0.3 3 Sudoeste 7 Sur 0 -- -- 96
2020-01-11 07:00:00 0.7 2 Noroeste 5 Noroeste 0 -- -- 96
2020-01-11 06:00:00 0.8 2 Norte 5 Nordeste 0 -- -- 96
2020-01-11 05:00:00 1.1 0 Calma 3 Este 0 -- -- 96
2020-01-11 04:00:00 0.8 0 Calma 2 Este 0 -- -- 96
2020-01-11 03:00:00 0.6 0 Calma 6 Sudoeste 0 -- -- 95
2020-01-11 02:00:00 0.1 0 Calma 10 Nordeste 0 -- -- 95
2020-01-11 01:00:00 0.6 4 Norte 8 Noroeste 0 -- -- 95
2020-01-11 00:00:00 1.1 2 Nordeste 9 Noroeste 0 -- -- 94
2020-01-10 23:00:00 0.9 0 Calma 6 Norte 0 -- -- 94
2020-01-10 22:00:00 1.1 2 Norte 10 Noroeste 0 -- -- 92
2020-01-10 21:00:00 1.9 5 Norte 9 Norte 0 -- -- 92
2020-01-10 20:00:00 3.4 0 Calma 5 Norte 0 -- -- 90
2020-01-10 19:00:00 3.9 3 Sudeste 10 Nordeste 0 -- -- 88
2020-01-10 18:00:00 5 6 Nordeste 15 Nordeste 0.1 -- -- 84
2020-01-10 17:00:00 5.4 8 Nordeste 21 Nordeste 0 -- -- 81
2020-01-10 16:00:00 6.2 11 Nordeste 27 Nordeste 0 -- -- 67
2020-01-10 15:00:00 7.5 6 Norte 22 Nordeste 0.2 -- -- 65
2020-01-10 14:00:00 6.5 7 Nordeste 19 Nordeste 0.1 -- -- 75
2020-01-10 13:00:00 6.2 8 Norte 20 Noroeste 0 -- -- 75
2020-01-10 12:00:00 5.8 3 Norte 15 Norte 0 -- -- 81
2020-01-10 11:00:00 4 2 Nordeste 11 Norte 0 -- -- 95
2020-01-10 10:00:00 2 4 Oeste 9 Sudoeste 0 -- -- 96
2020-01-10 09:00:00 0.4 0 Calma 6 Sudoeste 0.1 -- -- 96
2020-01-10 08:00:00 -0.6 0 Calma 5 Oeste 0 -- -- 95
2020-01-10 07:00:00 -0.2 0 Calma 12 Sudoeste 0 -- -- 95
2020-01-10 06:00:00 -0.3 0 Calma 7 Noroeste 0 -- -- 95
2020-01-10 05:00:00 -0.4 0 Calma 5 Oeste 0 -- -- 94
2020-01-10 04:00:00 -0.1 0 Calma 5 Noroeste 0 -- -- 93
2020-01-10 03:00:00 0.4 0 Calma 7 Noroeste 0 -- -- 92
2020-01-10 02:00:00 1.1 4 Noroeste 9 Noroeste 0 -- -- 90
2020-01-10 01:00:00 2.6 6 Norte 10 Noroeste 0 -- -- 88
2020-01-10 00:00:00 4 4 Nordeste 13 Nordeste 0 -- -- 83
2020-01-09 23:00:00 5.9 7 Nordeste 23 Nordeste 0 -- -- 83
2020-01-09 22:00:00 6.7 7 Nordeste 12 Nordeste 0 -- -- 91
2020-01-09 21:00:00 6.6 3 Nordeste 11 Nordeste 0 -- -- 92
2020-01-09 20:00:00 6.7 3 Nordeste 8 Nordeste 0 -- -- 92
2020-01-09 19:00:00 7 3 Norte 8 Nordeste 0 -- -- 91
2020-01-09 18:00:00 7.3 0 Calma 17 Sudoeste 0.1 -- -- 87
2020-01-09 17:00:00 7.6 9 Sudoeste 31 Sudoeste 0 -- -- 78
2020-01-09 16:00:00 8.9 16 Sudoeste 37 Oeste 0 -- -- 60
2020-01-09 15:00:00 10.5 17 Sudoeste 36 Sudoeste 0 -- -- 52
2020-01-09 14:00:00 9.1 11 Sudoeste 34 Sudoeste 0 -- -- 52
2020-01-09 13:00:00 8.5 13 Sudoeste 37 Sudoeste 0 -- -- 52
2020-01-09 12:00:00 9.1 13 Sudoeste 26 Sudoeste 0 -- -- 53
2020-01-09 11:00:00 4.9 6 Sudoeste 14 Sudoeste 0 -- -- 88
2020-01-09 10:00:00 -0.5 2 Sudoeste 6 Sudoeste 0 -- -- 95
2020-01-09 09:00:00 -1.9 0 Calma 7 Oeste 0 -- -- 96
2020-01-09 08:00:00 -1.6 0 Calma 4 Sudoeste 0 -- -- 96
2020-01-09 07:00:00 -1.4 0 Calma 6 Norte 0 -- -- 96
2020-01-09 06:00:00 -1.3 0 Calma 6 Nordeste 0 -- -- 96
2020-01-09 05:00:00 -1.3 3 Nordeste 6 Nordeste 0 -- -- 96
2020-01-09 04:00:00 -1.5 0 Calma -- -- 0 -- -- 95
2020-01-09 03:00:00 -0.9 0 Calma -- -- 0 -- -- 95
2020-01-09 02:00:00 -0.2 0 Calma -- -- 0 -- -- 94
2020-01-09 01:00:00 0.1 0 Calma -- -- 0 -- -- 94
2020-01-09 00:00:00 1.2 0 Calma -- -- 0 -- -- 92
2020-01-08 23:00:00 1.7 0 Calma 4 Sudoeste 0 -- -- 92
2020-01-08 22:00:00 2 0 Calma 4 Sudeste 0 -- -- 91
2020-01-08 21:00:00 3.4 2 Oeste 6 Sudoeste 0 -- -- 87
2020-01-08 20:00:00 4.7 0 Calma 5 Noroeste 0 -- -- 83
2020-01-08 19:00:00 7.1 3 Norte 9 Norte 0 -- -- 76
2020-01-08 18:00:00 9.4 6 Norte 8 Norte 0 -- -- 64
2020-01-08 17:00:00 15.5 2 Sur 8 Este 0 -- -- 37
2020-01-08 16:00:00 15.3 2 Nordeste 6 Sudoeste 0 -- -- 34
2020-01-08 15:00:00 14 0 Calma 6 Sur 0 -- -- 35
2020-01-08 14:00:00 10.4 3 Sur 7 Sudoeste 0 -- -- 44
2020-01-08 13:00:00 5.2 2 Sur 6 Sudoeste 0 -- -- 66
2020-01-08 12:00:00 2.5 2 Sur -- -- -- -- -- 81
2020-01-08 11:00:00 -- -- -- -- -- -- -- -- --
2020-01-08 10:00:00 -- -- -- -- -- -- -- -- --
2020-01-08 09:00:00 -- -- -- -- -- -- -- -- --
2020-01-08 08:00:00 -- -- -- -- -- -- -- -- --
2020-01-08 07:00:00 -- -- -- -- -- -- -- -- --
2020-01-08 06:00:00 -- -- -- -- -- -- -- -- --
2020-01-08 05:00:00 -- -- -- -- -- -- -- -- --
2020-01-08 04:00:00 -- -- -- -- -- -- -- -- --
2020-01-08 03:00:00 -- -- -- -- -- -- -- -- --
2020-01-08 02:00:00 -- -- -- -- -- -- -- -- --
2020-01-08 01:00:00 -- -- -- -- -- -- -- -- --
2020-01-08 00:00:00 -- -- -- -- -- -- -- -- --
2020-01-07 23:00:00 -- -- -- -- -- -- -- -- --
2020-01-07 22:00:00 -- -- -- -- -- -- -- -- --
2020-01-07 21:00:00 -- -- -- -- -- -- -- -- --
2020-01-07 20:00:00 -- -- -- -- -- -- -- -- --
2020-01-07 19:00:00 -- -- -- -- -- -- -- -- --
2020-01-07 18:00:00 -- -- -- -- -- -- -- -- --
2020-01-07 17:00:00 -- -- -- -- -- -- -- -- --
2020-01-07 16:00:00 -- -- -- -- -- -- -- -- --
2020-01-07 15:00:00 -- -- -- -- -- -- -- -- --
2020-01-07 14:00:00 -- -- -- -- -- -- -- -- --
2020-01-07 13:00:00 -- -- -- -- -- -- -- -- --
2020-01-07 12:00:00 -- -- -- -- -- -- -- -- --
2020-01-07 11:00:00 -- -- -- -- -- -- -- -- --
2020-01-07 10:00:00 -- -- -- -- -- -- -- -- --
2020-01-07 09:00:00 -- -- -- -- -- -- -- -- --
2020-01-07 08:00:00 -- -- -- -- -- -- -- -- --
2020-01-07 07:00:00 -- -- -- -- -- -- -- -- --
2020-01-07 06:00:00 -- -- -- -- -- -- -- -- --
2020-01-07 05:00:00 -- -- -- -- -- -- -- -- --
2020-01-07 04:00:00 -- -- -- -- -- -- -- -- --
2020-01-07 03:00:00 -- -- -- -- -- -- -- -- --
2020-01-07 02:00:00 -- -- -- -- -- -- -- -- --
2020-01-07 01:00:00 -- -- -- -- -- -- -- -- --
2020-01-07 00:00:00 -- -- -- -- -- -- -- -- --
2020-01-06 23:00:00 -- -- -- -- -- -- -- -- --
2020-01-06 22:00:00 -- -- -- -- -- -- -- -- --
2020-01-06 21:00:00 -- -- -- -- -- -- -- -- --
2020-01-06 20:00:00 -- -- -- -- -- -- -- -- --
2020-01-06 19:00:00 -- -- -- -- -- -- -- -- --
2020-01-06 18:00:00 -- -- -- -- -- -- -- -- --
2020-01-06 17:00:00 -- -- -- -- -- -- -- -- --
2020-01-06 16:00:00 -- -- -- -- -- -- -- -- --
2020-01-06 15:00:00 -- -- -- -- -- -- -- -- --
2020-01-06 14:00:00 -- -- -- -- -- -- -- -- --
2020-01-06 13:00:00 -- -- -- -- -- -- -- -- --
2020-01-06 12:00:00 -- -- -- -- -- -- -- -- --
2020-01-06 11:00:00 -- -- -- -- -- -- -- -- --
2020-01-06 10:00:00 -- -- -- -- -- -- -- -- --